sensor_id;sensor_type;location;lat;lon;timestamp;P1;durP1;ratioP1;P2;durP2;ratioP2
1262;SDS011;62267;50.112;8.704;2023-08-01T00:01:52;9.67;;;4.97;;
1262;SDS011;62267;50.112;8.704;2023-08-01T00:04:20;7.30;;;5.43;;
1262;SDS011;62267;50.112;8.704;2023-08-01T00:06:47;8.50;;;5.70;;
1262;SDS011;62267;50.112;8.704;2023-08-01T00:09:15;6.60;;;6.00;;
1262;SDS011;62267;50.112;8.704;2023-08-01T00:11:42;8.70;;;5.67;;
1262;SDS011;62267;50.112;8.704;2023-08-01T00:14:09;6.80;;;4.97;;
1262;SDS011;62267;50.112;8.704;2023-08-01T00:16:40;7.90;;;5.20;;
1262;SDS011;62267;50.112;8.704;2023-08-01T00:19:09;6.97;;;5.70;;
1262;SDS011;62267;50.112;8.704;2023-08-01T00:21:36;6.33;;;5.63;;
1262;SDS011;62267;50.112;8.704;2023-08-01T00:24:04;5.67;;;5.03;;
1262;SDS011;62267;50.112;8.704;2023-08-01T00:26:34;8.60;;;5.70;;
1262;SDS011;62267;50.112;8.704;2023-08-01T00:29:01;7.13;;;5.40;;
1262;SDS011;62267;50.112;8.704;2023-08-01T00:31:29;6.83;;;5.23;;
1262;SDS011;62267;50.112;8.704;2023-08-01T00:33:56;7.10;;;5.90;;
1262;SDS011;62267;50.112;8.704;2023-08-01T00:36:23;6.80;;;5.77;;
1262;SDS011;62267;50.112;8.704;2023-08-01T00:38:52;6.57;;;5.80;;
1262;SDS011;62267;50.112;8.704;2023-08-01T00:41:19;8.00;;;5.67;;
1262;SDS011;62267;50.112;8.704;2023-08-01T00:43:47;7.80;;;6.00;;
1262;SDS011;62267;50.112;8.704;2023-08-01T00:46:14;8.07;;;6.73;;
1262;SDS011;62267;50.112;8.704;2023-08-01T00:48:41;7.40;;;5.90;;
1262;SDS011;62267;50.112;8.704;2023-08-01T00:51:09;7.97;;;6.10;;
1262;SDS011;62267;50.112;8.704;2023-08-01T00:53:39;8.53;;;5.83;;
1262;SDS011;62267;50.112;8.704;2023-08-01T00:56:07;6.80;;;5.50;;
1262;SDS011;62267;50.112;8.704;2023-08-01T00:58:34;6.43;;;5.70;;
1262;SDS011;62267;50.112;8.704;2023-08-01T01:01:06;7.67;;;6.27;;
1262;SDS011;62267;50.112;8.704;2023-08-01T01:03:35;9.87;;;5.90;;
1262;SDS011;62267;50.112;8.704;2023-08-01T01:08:33;8.37;;;6.33;;
1262;SDS011;62267;50.112;8.704;2023-08-01T01:11:00;7.60;;;6.47;;
1262;SDS011;62267;50.112;8.704;2023-08-01T01:13:28;8.10;;;6.20;;
1262;SDS011;62267;50.112;8.704;2023-08-01T01:15:55;8.53;;;5.83;;
1262;SDS011;62267;50.112;8.704;2023-08-01T01:18:22;9.40;;;6.63;;
1262;SDS011;62267;50.112;8.704;2023-08-01T01:20:50;9.00;;;7.23;;
1262;SDS011;62267;50.112;8.704;2023-08-01T01:23:17;6.10;;;5.50;;
1262;SDS011;62267;50.112;8.704;2023-08-01T01:25:46;6.37;;;5.50;;
1262;SDS011;62267;50.112;8.704;2023-08-01T01:28:13;8.73;;;6.33;;
1262;SDS011;62267;50.112;8.704;2023-08-01T01:30:42;5.53;;;5.03;;
1262;SDS011;62267;50.112;8.704;2023-08-01T01:33:10;6.00;;;5.20;;
1262;SDS011;62267;50.112;8.704;2023-08-01T01:35:38;5.60;;;4.87;;
1262;SDS011;62267;50.112;8.704;2023-08-01T01:38:06;5.97;;;5.37;;
1262;SDS011;62267;50.112;8.704;2023-08-01T01:40:34;6.30;;;5.07;;
1262;SDS011;62267;50.112;8.704;2023-08-01T01:43:01;7.93;;;6.10;;
1262;SDS011;62267;50.112;8.704;2023-08-01T01:45:29;6.13;;;5.53;;
1262;SDS011;62267;50.112;8.704;2023-08-01T01:47:56;9.80;;;6.53;;
1262;SDS011;62267;50.112;8.704;2023-08-01T01:50:24;7.80;;;5.80;;
1262;SDS011;62267;50.112;8.704;2023-08-01T01:52:52;9.20;;;7.83;;
1262;SDS011;62267;50.112;8.704;2023-08-01T01:55:19;8.63;;;7.07;;
1262;SDS011;62267;50.112;8.704;2023-08-01T01:57:47;6.73;;;6.03;;
1262;SDS011;62267;50.112;8.704;2023-08-01T02:00:15;9.27;;;7.70;;
1262;SDS011;62267;50.112;8.704;2023-08-01T02:02:42;7.67;;;6.27;;
1262;SDS011;62267;50.112;8.704;2023-08-01T02:05:10;8.60;;;6.77;;
1262;SDS011;62267;50.112;8.704;2023-08-01T02:07:37;10.47;;;6.83;;
1262;SDS011;62267;50.112;8.704;2023-08-01T02:10:04;9.67;;;7.37;;
1262;SDS011;62267;50.112;8.704;2023-08-01T02:12:33;7.00;;;6.40;;
1262;SDS011;62267;50.112;8.704;2023-08-01T02:15:03;6.57;;;5.90;;
1262;SDS011;62267;50.112;8.704;2023-08-01T02:17:31;9.13;;;6.90;;
1262;SDS011;62267;50.112;8.704;2023-08-01T02:20:00;6.67;;;5.67;;
1262;SDS011;62267;50.112;8.704;2023-08-01T02:22:27;8.77;;;6.77;;
1262;SDS011;62267;50.112;8.704;2023-08-01T02:24:55;9.70;;;6.47;;
1262;SDS011;62267;50.112;8.704;2023-08-01T02:27:22;7.87;;;6.40;;
1262;SDS011;62267;50.112;8.704;2023-08-01T02:29:50;8.40;;;7.50;;
1262;SDS011;62267;50.112;8.704;2023-08-01T02:32:17;7.30;;;6.10;;
1262;SDS011;62267;50.112;8.704;2023-08-01T02:34:45;7.30;;;5.90;;
1262;SDS011;62267;50.112;8.704;2023-08-01T02:37:13;8.50;;;5.60;;
1262;SDS011;62267;50.112;8.704;2023-08-01T02:39:40;6.20;;;5.60;;
1262;SDS011;62267;50.112;8.704;2023-08-01T02:42:07;8.00;;;5.67;;
1262;SDS011;62267;50.112;8.704;2023-08-01T02:44:35;8.17;;;6.20;;
1262;SDS011;62267;50.112;8.704;2023-08-01T02:47:02;7.63;;;6.50;;
1262;SDS011;62267;50.112;8.704;2023-08-01T02:49:30;6.70;;;5.83;;
1262;SDS011;62267;50.112;8.704;2023-08-01T02:51:57;11.10;;;6.53;;
1262;SDS011;62267;50.112;8.704;2023-08-01T02:54:25;9.50;;;6.00;;
1262;SDS011;62267;50.112;8.704;2023-08-01T02:56:52;6.53;;;5.63;;
1262;SDS011;62267;50.112;8.704;2023-08-01T02:59:20;7.57;;;6.23;;
1262;SDS011;62267;50.112;8.704;2023-08-01T03:01:48;8.87;;;6.20;;
1262;SDS011;62267;50.112;8.704;2023-08-01T03:04:15;14.03;;;6.87;;
1262;SDS011;62267;50.112;8.704;2023-08-01T03:06:45;7.60;;;6.37;;
1262;SDS011;62267;50.112;8.704;2023-08-01T03:09:13;6.90;;;6.07;;
1262;SDS011;62267;50.112;8.704;2023-08-01T03:11:40;6.20;;;5.43;;
1262;SDS011;62267;50.112;8.704;2023-08-01T03:14:07;6.90;;;5.90;;
1262;SDS011;62267;50.112;8.704;2023-08-01T03:16:35;9.43;;;7.20;;
1262;SDS011;62267;50.112;8.704;2023-08-01T03:19:02;6.50;;;5.80;;
1262;SDS011;62267;50.112;8.704;2023-08-01T03:21:33;7.13;;;5.50;;
1262;SDS011;62267;50.112;8.704;2023-08-01T03:24:01;6.73;;;6.00;;
1262;SDS011;62267;50.112;8.704;2023-08-01T03:26:28;5.93;;;5.30;;
1262;SDS011;62267;50.112;8.704;2023-08-01T03:28:56;7.50;;;6.00;;
1262;SDS011;62267;50.112;8.704;2023-08-01T03:31:24;6.57;;;5.70;;
1262;SDS011;62267;50.112;8.704;2023-08-01T03:33:52;8.00;;;5.77;;
1262;SDS011;62267;50.112;8.704;2023-08-01T03:36:20;6.27;;;5.37;;
1262;SDS011;62267;50.112;8.704;2023-08-01T03:38:47;6.10;;;5.50;;
1262;SDS011;62267;50.112;8.704;2023-08-01T03:41:15;6.73;;;6.13;;
1262;SDS011;62267;50.112;8.704;2023-08-01T03:43:42;6.07;;;5.47;;
1262;SDS011;62267;50.112;8.704;2023-08-01T03:46:10;6.27;;;5.30;;
1262;SDS011;62267;50.112;8.704;2023-08-01T03:48:37;8.07;;;5.00;;
1262;SDS011;62267;50.112;8.704;2023-08-01T03:51:05;6.50;;;5.60;;
1262;SDS011;62267;50.112;8.704;2023-08-01T03:53:34;5.90;;;5.30;;
1262;SDS011;62267;50.112;8.704;2023-08-01T03:56:03;6.53;;;5.73;;
1262;SDS011;62267;50.112;8.704;2023-08-01T03:58:31;5.50;;;5.00;;
1262;SDS011;62267;50.112;8.704;2023-08-01T04:00:58;6.53;;;5.53;;
1262;SDS011;62267;50.112;8.704;2023-08-01T04:03:25;6.87;;;5.40;;
1262;SDS011;62267;50.112;8.704;2023-08-01T04:05:53;6.17;;;5.23;;
1262;SDS011;62267;50.112;8.704;2023-08-01T04:08:20;9.70;;;6.40;;
1262;SDS011;62267;50.112;8.704;2023-08-01T04:10:48;5.83;;;5.17;;
1262;SDS011;62267;50.112;8.704;2023-08-01T04:13:19;6.20;;;5.20;;
1262;SDS011;62267;50.112;8.704;2023-08-01T04:15:46;6.50;;;5.63;;
1262;SDS011;62267;50.112;8.704;2023-08-01T04:18:13;7.30;;;5.90;;
1262;SDS011;62267;50.112;8.704;2023-08-01T04:20:41;6.03;;;5.43;;
1262;SDS011;62267;50.112;8.704;2023-08-01T04:23:08;8.10;;;5.90;;
1262;SDS011;62267;50.112;8.704;2023-08-01T04:25:35;7.93;;;6.20;;
1262;SDS011;62267;50.112;8.704;2023-08-01T04:28:02;11.03;;;6.27;;
1262;SDS011;62267;50.112;8.704;2023-08-01T04:30:30;9.80;;;5.87;;
1262;SDS011;62267;50.112;8.704;2023-08-01T04:32:59;8.07;;;6.67;;
1262;SDS011;62267;50.112;8.704;2023-08-01T04:35:26;9.40;;;6.37;;
1262;SDS011;62267;50.112;8.704;2023-08-01T04:37:54;10.57;;;6.80;;
1262;SDS011;62267;50.112;8.704;2023-08-01T04:40:21;7.53;;;5.97;;
1262;SDS011;62267;50.112;8.704;2023-08-01T04:42:48;6.97;;;5.97;;
1262;SDS011;62267;50.112;8.704;2023-08-01T04:45:15;9.60;;;5.87;;
1262;SDS011;62267;50.112;8.704;2023-08-01T04:47:43;6.10;;;4.93;;
1262;SDS011;62267;50.112;8.704;2023-08-01T04:50:10;7.50;;;5.13;;
1262;SDS011;62267;50.112;8.704;2023-08-01T04:52:37;10.33;;;5.10;;
1262;SDS011;62267;50.112;8.704;2023-08-01T04:55:05;7.97;;;5.20;;
1262;SDS011;62267;50.112;8.704;2023-08-01T04:57:32;5.10;;;4.70;;
1262;SDS011;62267;50.112;8.704;2023-08-01T04:59:59;5.63;;;4.73;;
1262;SDS011;62267;50.112;8.704;2023-08-01T05:02:27;5.60;;;5.00;;
1262;SDS011;62267;50.112;8.704;2023-08-01T05:04:55;7.27;;;5.43;;
1262;SDS011;62267;50.112;8.704;2023-08-01T05:07:22;9.40;;;7.30;;
1262;SDS011;62267;50.112;8.704;2023-08-01T05:09:49;6.37;;;5.33;;
1262;SDS011;62267;50.112;8.704;2023-08-01T05:12:16;6.00;;;5.40;;
1262;SDS011;62267;50.112;8.704;2023-08-01T05:14:43;7.83;;;5.50;;
1262;SDS011;62267;50.112;8.704;2023-08-01T05:17:11;5.40;;;4.20;;
1262;SDS011;62267;50.112;8.704;2023-08-01T05:19:38;6.30;;;4.83;;
1262;SDS011;62267;50.112;8.704;2023-08-01T05:22:05;8.50;;;4.70;;
1262;SDS011;62267;50.112;8.704;2023-08-01T05:24:33;7.20;;;5.07;;
1262;SDS011;62267;50.112;8.704;2023-08-01T05:27:00;6.97;;;4.53;;
1262;SDS011;62267;50.112;8.704;2023-08-01T05:29:27;6.43;;;5.57;;
1262;SDS011;62267;50.112;8.704;2023-08-01T05:31:54;5.30;;;4.80;;
1262;SDS011;62267;50.112;8.704;2023-08-01T05:34:22;4.90;;;4.43;;
1262;SDS011;62267;50.112;8.704;2023-08-01T05:36:49;6.47;;;5.10;;
1262;SDS011;62267;50.112;8.704;2023-08-01T05:39:16;6.93;;;4.80;;
1262;SDS011;62267;50.112;8.704;2023-08-01T05:41:44;5.27;;;4.50;;
1262;SDS011;62267;50.112;8.704;2023-08-01T05:44:11;4.80;;;4.30;;
1262;SDS011;62267;50.112;8.704;2023-08-01T05:46:38;5.73;;;5.23;;
1262;SDS011;62267;50.112;8.704;2023-08-01T05:49:06;4.43;;;4.03;;
1262;SDS011;62267;50.112;8.704;2023-08-01T05:51:33;5.37;;;4.87;;
1262;SDS011;62267;50.112;8.704;2023-08-01T05:54:01;5.10;;;4.60;;
1262;SDS011;62267;50.112;8.704;2023-08-01T05:56:28;6.03;;;4.50;;
1262;SDS011;62267;50.112;8.704;2023-08-01T05:58:56;5.30;;;4.77;;
1262;SDS011;62267;50.112;8.704;2023-08-01T06:01:23;5.47;;;4.60;;
1262;SDS011;62267;50.112;8.704;2023-08-01T06:03:51;5.90;;;5.27;;
1262;SDS011;62267;50.112;8.704;2023-08-01T06:06:18;5.10;;;4.70;;
1262;SDS011;62267;50.112;8.704;2023-08-01T06:08:45;5.70;;;5.20;;
1262;SDS011;62267;50.112;8.704;2023-08-01T06:11:13;6.70;;;5.23;;
1262;SDS011;62267;50.112;8.704;2023-08-01T06:13:40;7.07;;;5.60;;
1262;SDS011;62267;50.112;8.704;2023-08-01T06:16:07;7.90;;;5.20;;
1262;SDS011;62267;50.112;8.704;2023-08-01T06:18:34;6.40;;;5.50;;
1262;SDS011;62267;50.112;8.704;2023-08-01T06:21:02;9.67;;;5.67;;
1262;SDS011;62267;50.112;8.704;2023-08-01T06:23:30;5.73;;;5.13;;
1262;SDS011;62267;50.112;8.704;2023-08-01T06:25:57;9.63;;;5.40;;
1262;SDS011;62267;50.112;8.704;2023-08-01T06:28:24;6.47;;;5.00;;
1262;SDS011;62267;50.112;8.704;2023-08-01T06:30:51;6.33;;;5.23;;
1262;SDS011;62267;50.112;8.704;2023-08-01T06:33:19;6.67;;;5.00;;
1262;SDS011;62267;50.112;8.704;2023-08-01T06:35:46;7.43;;;6.37;;
1262;SDS011;62267;50.112;8.704;2023-08-01T06:38:13;8.80;;;7.30;;
1262;SDS011;62267;50.112;8.704;2023-08-01T06:40:40;6.33;;;5.73;;
1262;SDS011;62267;50.112;8.704;2023-08-01T06:43:08;5.73;;;5.00;;
1262;SDS011;62267;50.112;8.704;2023-08-01T06:45:35;4.73;;;4.33;;
1262;SDS011;62267;50.112;8.704;2023-08-01T06:48:02;4.70;;;4.30;;
1262;SDS011;62267;50.112;8.704;2023-08-01T06:50:30;5.80;;;4.60;;
1262;SDS011;62267;50.112;8.704;2023-08-01T06:52:57;4.40;;;4.00;;
1262;SDS011;62267;50.112;8.704;2023-08-01T06:55:24;3.43;;;3.13;;
1262;SDS011;62267;50.112;8.704;2023-08-01T06:57:53;2.97;;;2.67;;
1262;SDS011;62267;50.112;8.704;2023-08-01T07:00:20;3.73;;;2.90;;
1262;SDS011;62267;50.112;8.704;2023-08-01T07:02:47;3.90;;;3.60;;
1262;SDS011;62267;50.112;8.704;2023-08-01T07:05:15;5.40;;;2.90;;
1262;SDS011;62267;50.112;8.704;2023-08-01T07:07:42;3.40;;;2.70;;
1262;SDS011;62267;50.112;8.704;2023-08-01T07:10:10;4.43;;;4.00;;
1262;SDS011;62267;50.112;8.704;2023-08-01T07:12:37;3.10;;;2.70;;
1262;SDS011;62267;50.112;8.704;2023-08-01T07:15:04;3.00;;;2.80;;
1262;SDS011;62267;50.112;8.704;2023-08-01T07:17:33;2.70;;;2.50;;
1262;SDS011;62267;50.112;8.704;2023-08-01T07:20:00;2.80;;;2.60;;
1262;SDS011;62267;50.112;8.704;2023-08-01T07:22:27;3.30;;;2.30;;
1262;SDS011;62267;50.112;8.704;2023-08-01T07:24:54;3.00;;;2.63;;
1262;SDS011;62267;50.112;8.704;2023-08-01T07:27:22;2.70;;;2.50;;
1262;SDS011;62267;50.112;8.704;2023-08-01T07:29:49;2.77;;;2.57;;
1262;SDS011;62267;50.112;8.704;2023-08-01T07:32:16;3.73;;;2.80;;
1262;SDS011;62267;50.112;8.704;2023-08-01T07:34:43;2.70;;;2.50;;
1262;SDS011;62267;50.112;8.704;2023-08-01T07:37:11;2.70;;;2.40;;
1262;SDS011;62267;50.112;8.704;2023-08-01T07:39:38;3.40;;;2.60;;
1262;SDS011;62267;50.112;8.704;2023-08-01T07:42:05;3.67;;;2.70;;
1262;SDS011;62267;50.112;8.704;2023-08-01T07:44:32;3.50;;;2.47;;
1262;SDS011;62267;50.112;8.704;2023-08-01T07:47:00;3.13;;;2.57;;
1262;SDS011;62267;50.112;8.704;2023-08-01T07:49:27;3.17;;;2.40;;
1262;SDS011;62267;50.112;8.704;2023-08-01T07:51:54;3.10;;;2.80;;
1262;SDS011;62267;50.112;8.704;2023-08-01T07:54:21;2.70;;;2.50;;
1262;SDS011;62267;50.112;8.704;2023-08-01T07:56:49;3.07;;;2.77;;
1262;SDS011;62267;50.112;8.704;2023-08-01T07:59:16;3.10;;;2.90;;
1262;SDS011;62267;50.112;8.704;2023-08-01T08:01:43;2.97;;;2.77;;
1262;SDS011;62267;50.112;8.704;2023-08-01T08:04:10;3.07;;;2.83;;
1262;SDS011;62267;50.112;8.704;2023-08-01T08:06:39;2.77;;;2.57;;
1262;SDS011;62267;50.112;8.704;2023-08-01T08:09:07;3.73;;;3.27;;
1262;SDS011;62267;50.112;8.704;2023-08-01T08:11:35;3.20;;;2.90;;
1262;SDS011;62267;50.112;8.704;2023-08-01T08:14:02;3.43;;;3.13;;
1262;SDS011;62267;50.112;8.704;2023-08-01T08:16:29;3.03;;;2.77;;
1262;SDS011;62267;50.112;8.704;2023-08-01T08:18:57;4.60;;;3.20;;
1262;SDS011;62267;50.112;8.704;2023-08-01T08:21:24;3.40;;;3.10;;
1262;SDS011;62267;50.112;8.704;2023-08-01T08:23:51;3.53;;;3.00;;
1262;SDS011;62267;50.112;8.704;2023-08-01T08:26:18;2.80;;;2.60;;
1262;SDS011;62267;50.112;8.704;2023-08-01T08:28:46;2.70;;;2.50;;
1262;SDS011;62267;50.112;8.704;2023-08-01T08:31:14;3.00;;;2.80;;
1262;SDS011;62267;50.112;8.704;2023-08-01T08:33:41;3.10;;;2.80;;
1262;SDS011;62267;50.112;8.704;2023-08-01T08:36:09;3.23;;;2.93;;
1262;SDS011;62267;50.112;8.704;2023-08-01T08:38:36;4.10;;;2.77;;
1262;SDS011;62267;50.112;8.704;2023-08-01T08:41:10;3.27;;;2.80;;
1262;SDS011;62267;50.112;8.704;2023-08-01T08:43:40;3.33;;;3.13;;
1262;SDS011;62267;50.112;8.704;2023-08-01T08:46:08;3.10;;;2.90;;
1262;SDS011;62267;50.112;8.704;2023-08-01T08:48:36;3.07;;;2.87;;
1262;SDS011;62267;50.112;8.704;2023-08-01T08:51:04;3.00;;;2.80;;
1262;SDS011;62267;50.112;8.704;2023-08-01T08:53:33;4.47;;;3.13;;
1262;SDS011;62267;50.112;8.704;2023-08-01T08:56:01;3.43;;;2.80;;
1262;SDS011;62267;50.112;8.704;2023-08-01T08:58:29;3.20;;;2.90;;
1262;SDS011;62267;50.112;8.704;2023-08-01T09:01:00;2.80;;;2.60;;
1262;SDS011;62267;50.112;8.704;2023-08-01T09:03:28;3.80;;;3.13;;
1262;SDS011;62267;50.112;8.704;2023-08-01T09:06:03;2.40;;;2.20;;
1262;SDS011;62267;50.112;8.704;2023-08-01T09:08:32;3.20;;;2.90;;
1262;SDS011;62267;50.112;8.704;2023-08-01T09:11:02;3.30;;;2.87;;
1262;SDS011;62267;50.112;8.704;2023-08-01T09:13:30;4.20;;;3.00;;
1262;SDS011;62267;50.112;8.704;2023-08-01T09:15:57;3.33;;;3.07;;
1262;SDS011;62267;50.112;8.704;2023-08-01T09:18:25;3.03;;;2.70;;
1262;SDS011;62267;50.112;8.704;2023-08-01T09:20:54;3.20;;;2.67;;
1262;SDS011;62267;50.112;8.704;2023-08-01T09:23:24;3.27;;;2.97;;
1262;SDS011;62267;50.112;8.704;2023-08-01T09:25:53;3.73;;;3.30;;
1262;SDS011;62267;50.112;8.704;2023-08-01T09:28:23;2.83;;;2.63;;
1262;SDS011;62267;50.112;8.704;2023-08-01T09:30:52;5.93;;;2.97;;
1262;SDS011;62267;50.112;8.704;2023-08-01T09:33:24;3.50;;;2.83;;
1262;SDS011;62267;50.112;8.704;2023-08-01T09:35:51;3.20;;;2.90;;
1262;SDS011;62267;50.112;8.704;2023-08-01T09:38:19;3.97;;;3.43;;
1262;SDS011;62267;50.112;8.704;2023-08-01T09:40:47;2.77;;;2.57;;
1262;SDS011;62267;50.112;8.704;2023-08-01T09:43:14;2.83;;;2.63;;
1262;SDS011;62267;50.112;8.704;2023-08-01T09:45:51;3.10;;;2.80;;
1262;SDS011;62267;50.112;8.704;2023-08-01T09:48:25;3.00;;;2.80;;
1262;SDS011;62267;50.112;8.704;2023-08-01T09:51:15;4.40;;;3.10;;
1262;SDS011;62267;50.112;8.704;2023-08-01T09:53:47;3.17;;;2.87;;
1262;SDS011;62267;50.112;8.704;2023-08-01T09:56:15;2.60;;;2.50;;
1262;SDS011;62267;50.112;8.704;2023-08-01T09:58:44;2.73;;;2.53;;
1262;SDS011;62267;50.112;8.704;2023-08-01T10:01:13;3.53;;;3.23;;
1262;SDS011;62267;50.112;8.704;2023-08-01T10:03:44;2.73;;;2.53;;
1262;SDS011;62267;50.112;8.704;2023-08-01T10:06:13;5.73;;;2.90;;
1262;SDS011;62267;50.112;8.704;2023-08-01T10:08:41;3.23;;;2.90;;
1262;SDS011;62267;50.112;8.704;2023-08-01T10:11:08;2.90;;;2.67;;
1262;SDS011;62267;50.112;8.704;2023-08-01T10:13:36;2.50;;;2.30;;
1262;SDS011;62267;50.112;8.704;2023-08-01T10:16:03;2.60;;;2.50;;
1262;SDS011;62267;50.112;8.704;2023-08-01T10:18:31;3.10;;;2.90;;
1262;SDS011;62267;50.112;8.704;2023-08-01T10:20:59;3.30;;;3.10;;
1262;SDS011;62267;50.112;8.704;2023-08-01T10:23:26;2.97;;;2.73;;
1262;SDS011;62267;50.112;8.704;2023-08-01T10:25:54;7.97;;;4.83;;
1262;SDS011;62267;50.112;8.704;2023-08-01T10:28:30;3.30;;;3.10;;
1262;SDS011;62267;50.112;8.704;2023-08-01T10:31:11;4.67;;;4.20;;
1262;SDS011;62267;50.112;8.704;2023-08-01T10:33:39;3.37;;;3.07;;
1262;SDS011;62267;50.112;8.704;2023-08-01T10:41:19;5.90;;;3.30;;
1262;SDS011;62267;50.112;8.704;2023-08-01T10:43:46;3.60;;;3.30;;
1262;SDS011;62267;50.112;8.704;2023-08-01T10:46:14;3.50;;;3.30;;
1262;SDS011;62267;50.112;8.704;2023-08-01T10:48:48;3.60;;;3.27;;
1262;SDS011;62267;50.112;8.704;2023-08-01T10:51:15;4.70;;;2.93;;
1262;SDS011;62267;50.112;8.704;2023-08-01T10:53:42;3.63;;;3.33;;
1262;SDS011;62267;50.112;8.704;2023-08-01T10:56:19;3.50;;;3.20;;
1262;SDS011;62267;50.112;8.704;2023-08-01T10:58:47;16.03;;;12.03;;
1262;SDS011;62267;50.112;8.704;2023-08-01T11:01:15;3.60;;;3.30;;
1262;SDS011;62267;50.112;8.704;2023-08-01T11:03:42;3.23;;;3.03;;
1262;SDS011;62267;50.112;8.704;2023-08-01T11:06:10;4.13;;;3.00;;
1262;SDS011;62267;50.112;8.704;2023-08-01T11:08:38;6.10;;;2.80;;
1262;SDS011;62267;50.112;8.704;2023-08-01T11:11:10;2.87;;;2.67;;
1262;SDS011;62267;50.112;8.704;2023-08-01T11:13:40;2.50;;;2.30;;
1262;SDS011;62267;50.112;8.704;2023-08-01T11:16:10;3.50;;;3.20;;
1262;SDS011;62267;50.112;8.704;2023-08-01T11:18:44;4.40;;;3.00;;
1262;SDS011;62267;50.112;8.704;2023-08-01T11:21:12;4.47;;;3.00;;
1262;SDS011;62267;50.112;8.704;2023-08-01T11:23:40;3.50;;;2.77;;
1262;SDS011;62267;50.112;8.704;2023-08-01T11:26:08;4.00;;;2.90;;
1262;SDS011;62267;50.112;8.704;2023-08-01T11:28:36;3.10;;;2.80;;
1262;SDS011;62267;50.112;8.704;2023-08-01T11:31:13;4.10;;;2.90;;
1262;SDS011;62267;50.112;8.704;2023-08-01T11:33:40;2.60;;;2.40;;
1262;SDS011;62267;50.112;8.704;2023-08-01T11:36:07;2.77;;;2.40;;
1262;SDS011;62267;50.112;8.704;2023-08-01T11:38:35;3.63;;;2.73;;
1262;SDS011;62267;50.112;8.704;2023-08-01T11:41:03;5.77;;;2.83;;
1262;SDS011;62267;50.112;8.704;2023-08-01T11:43:40;2.57;;;2.37;;
1262;SDS011;62267;50.112;8.704;2023-08-01T11:46:07;4.70;;;3.00;;
1262;SDS011;62267;50.112;8.704;2023-08-01T11:48:35;4.63;;;2.83;;
1262;SDS011;62267;50.112;8.704;2023-08-01T11:51:03;2.93;;;2.37;;
1262;SDS011;62267;50.112;8.704;2023-08-01T11:53:30;3.03;;;2.73;;
1262;SDS011;62267;50.112;8.704;2023-08-01T11:56:05;2.90;;;2.60;;
1262;SDS011;62267;50.112;8.704;2023-08-01T11:58:33;3.20;;;2.90;;
1262;SDS011;62267;50.112;8.704;2023-08-01T12:01:01;3.07;;;2.87;;
1262;SDS011;62267;50.112;8.704;2023-08-01T12:03:29;4.47;;;3.13;;
1262;SDS011;62267;50.112;8.704;2023-08-01T12:06:04;3.40;;;3.10;;
1262;SDS011;62267;50.112;8.704;2023-08-01T12:08:34;2.80;;;2.60;;
1262;SDS011;62267;50.112;8.704;2023-08-01T12:11:01;3.20;;;3.00;;
1262;SDS011;62267;50.112;8.704;2023-08-01T12:13:28;3.23;;;2.93;;
1262;SDS011;62267;50.112;8.704;2023-08-01T12:15:57;3.13;;;2.70;;
1262;SDS011;62267;50.112;8.704;2023-08-01T12:18:25;3.60;;;3.30;;
1262;SDS011;62267;50.112;8.704;2023-08-01T12:20:55;3.30;;;3.00;;
1262;SDS011;62267;50.112;8.704;2023-08-01T12:23:23;4.70;;;4.30;;
1262;SDS011;62267;50.112;8.704;2023-08-01T12:25:50;4.07;;;3.47;;
1262;SDS011;62267;50.112;8.704;2023-08-01T12:28:17;2.83;;;2.63;;
1262;SDS011;62267;50.112;8.704;2023-08-01T12:30:45;4.00;;;3.37;;
1262;SDS011;62267;50.112;8.704;2023-08-01T12:33:12;3.40;;;3.13;;
1262;SDS011;62267;50.112;8.704;2023-08-01T12:35:40;4.10;;;3.70;;
1262;SDS011;62267;50.112;8.704;2023-08-01T12:38:08;3.10;;;2.87;;
1262;SDS011;62267;50.112;8.704;2023-08-01T12:40:35;2.87;;;2.67;;
1262;SDS011;62267;50.112;8.704;2023-08-01T12:43:03;3.03;;;2.83;;
1262;SDS011;62267;50.112;8.704;2023-08-01T12:45:31;4.27;;;3.37;;
1262;SDS011;62267;50.112;8.704;2023-08-01T12:47:59;3.23;;;2.93;;
1262;SDS011;62267;50.112;8.704;2023-08-01T12:50:26;4.80;;;3.03;;
1262;SDS011;62267;50.112;8.704;2023-08-01T12:52:53;3.83;;;3.00;;
1262;SDS011;62267;50.112;8.704;2023-08-01T12:55:21;3.90;;;3.30;;
1262;SDS011;62267;50.112;8.704;2023-08-01T12:57:48;4.20;;;3.80;;
1262;SDS011;62267;50.112;8.704;2023-08-01T13:00:16;5.40;;;3.47;;
1262;SDS011;62267;50.112;8.704;2023-08-01T13:02:43;5.10;;;3.67;;
1262;SDS011;62267;50.112;8.704;2023-08-01T13:05:10;3.67;;;3.37;;
1262;SDS011;62267;50.112;8.704;2023-08-01T13:07:38;3.20;;;2.93;;
1262;SDS011;62267;50.112;8.704;2023-08-01T13:10:05;3.20;;;2.80;;
1262;SDS011;62267;50.112;8.704;2023-08-01T13:12:32;3.50;;;3.20;;
1262;SDS011;62267;50.112;8.704;2023-08-01T13:15:00;3.47;;;3.17;;
1262;SDS011;62267;50.112;8.704;2023-08-01T13:17:42;3.87;;;3.50;;
1262;SDS011;62267;50.112;8.704;2023-08-01T13:20:11;3.60;;;3.30;;
1262;SDS011;62267;50.112;8.704;2023-08-01T13:22:38;5.17;;;3.30;;
1262;SDS011;62267;50.112;8.704;2023-08-01T13:25:05;3.40;;;2.90;;
1262;SDS011;62267;50.112;8.704;2023-08-01T13:27:36;3.37;;;2.70;;
1262;SDS011;62267;50.112;8.704;2023-08-01T13:30:03;3.40;;;3.10;;
1262;SDS011;62267;50.112;8.704;2023-08-01T13:32:30;3.60;;;3.30;;
1262;SDS011;62267;50.112;8.704;2023-08-01T13:34:58;3.60;;;3.30;;
1262;SDS011;62267;50.112;8.704;2023-08-01T13:37:25;3.93;;;3.30;;
1262;SDS011;62267;50.112;8.704;2023-08-01T13:39:56;3.67;;;3.37;;
1262;SDS011;62267;50.112;8.704;2023-08-01T13:42:24;3.90;;;3.33;;
1262;SDS011;62267;50.112;8.704;2023-08-01T13:44:53;3.33;;;2.90;;
1262;SDS011;62267;50.112;8.704;2023-08-01T13:47:20;3.80;;;3.50;;
1262;SDS011;62267;50.112;8.704;2023-08-01T13:49:47;3.37;;;3.07;;
1262;SDS011;62267;50.112;8.704;2023-08-01T13:52:15;4.17;;;3.77;;
1262;SDS011;62267;50.112;8.704;2023-08-01T13:54:42;6.47;;;3.87;;
1262;SDS011;62267;50.112;8.704;2023-08-01T13:57:09;3.60;;;3.30;;
1262;SDS011;62267;50.112;8.704;2023-08-01T13:59:37;5.87;;;3.33;;
1262;SDS011;62267;50.112;8.704;2023-08-01T14:02:04;3.87;;;3.57;;
1262;SDS011;62267;50.112;8.704;2023-08-01T14:04:35;5.00;;;3.40;;
1262;SDS011;62267;50.112;8.704;2023-08-01T14:07:02;4.40;;;4.00;;
1262;SDS011;62267;50.112;8.704;2023-08-01T14:09:30;4.63;;;3.90;;
1262;SDS011;62267;50.112;8.704;2023-08-01T14:11:58;3.70;;;3.40;;
1262;SDS011;62267;50.112;8.704;2023-08-01T14:14:26;4.40;;;4.00;;
1262;SDS011;62267;50.112;8.704;2023-08-01T14:16:53;5.20;;;3.63;;
1262;SDS011;62267;50.112;8.704;2023-08-01T14:19:22;5.13;;;4.63;;
1262;SDS011;62267;50.112;8.704;2023-08-01T14:21:49;5.50;;;4.77;;
1262;SDS011;62267;50.112;8.704;2023-08-01T14:24:16;6.43;;;5.23;;
1262;SDS011;62267;50.112;8.704;2023-08-01T14:26:44;5.70;;;4.30;;
1262;SDS011;62267;50.112;8.704;2023-08-01T14:29:11;5.70;;;3.67;;
1262;SDS011;62267;50.112;8.704;2023-08-01T14:31:38;4.80;;;4.30;;
1262;SDS011;62267;50.112;8.704;2023-08-01T14:34:05;5.43;;;4.33;;
1262;SDS011;62267;50.112;8.704;2023-08-01T14:36:33;3.60;;;3.30;;
1262;SDS011;62267;50.112;8.704;2023-08-01T14:39:00;4.40;;;3.60;;
1262;SDS011;62267;50.112;8.704;2023-08-01T14:41:45;7.40;;;4.77;;
1262;SDS011;62267;50.112;8.704;2023-08-01T14:44:30;3.93;;;3.73;;
1262;SDS011;62267;50.112;8.704;2023-08-01T14:46:57;8.17;;;5.23;;
1262;SDS011;62267;50.112;8.704;2023-08-01T14:49:25;4.07;;;3.67;;
1262;SDS011;62267;50.112;8.704;2023-08-01T14:51:56;4.83;;;3.90;;
1262;SDS011;62267;50.112;8.704;2023-08-01T14:54:23;4.93;;;3.70;;
1262;SDS011;62267;50.112;8.704;2023-08-01T14:57:06;4.80;;;3.90;;
1262;SDS011;62267;50.112;8.704;2023-08-01T14:59:34;3.30;;;3.00;;
1262;SDS011;62267;50.112;8.704;2023-08-01T15:02:02;3.17;;;2.90;;
1262;SDS011;62267;50.112;8.704;2023-08-01T15:04:29;4.60;;;3.10;;
1262;SDS011;62267;50.112;8.704;2023-08-01T15:06:57;3.37;;;3.13;;
1262;SDS011;62267;50.112;8.704;2023-08-01T15:09:24;5.13;;;2.87;;
1262;SDS011;62267;50.112;8.704;2023-08-01T15:11:52;3.80;;;2.70;;
1262;SDS011;62267;50.112;8.704;2023-08-01T15:14:19;6.90;;;3.93;;